Terminal Aerodrome Forecast
Issued by NWS St Louis, MO

Home | Current Version | Previous Version | Graphics & Text | Print | Product List | Glossary On
Versions: 1 2 3 4 5 6 7 8 9 10 11 12 13 14 15 16 17 18 19 20 21 22 23 24 25
000
FTUS43 KLSX 292000 AAA
TAFSTL
TAF AMD
KSTL 292002Z 2920/3024 23012G20KT P6SM VCSH BKN100
      TEMPO 2921/2923 6SM -SHRA SCT050 BKN100
     FM292300 25008KT P6SM BKN120
     FM300300 29005KT P6SM SKC=

USA.gov is the U.S. government's official web portal to all federal, state and local government web resources and services.